Time;durP1;ratioP1;P1;durP2;ratioP2;P2;SDS_P1;SDS_P2;PMS_P1;PMS_P2;Temp;Humidity;BMP_temperature;BMP_pressure;BME280_temperature;BME280_humidity;BME280_pressure;Samples;Min_cycle;Max_cycle;Signal;HPM_P1;HPM_P2
2022/12/24 00:00:14;;;;;;;77.25;44.95;;;;;;;4.82;81.54;99761.59;5040874;28;20216;-70
2022/12/24 00:02:39;;;;;;;75.20;42.92;;;;;;;4.90;81.06;99771.44;5043625;28;20041;-70
2022/12/24 00:05:05;;;;;;;81.20;42.72;;;;;;;4.94;81.04;99767.63;5052530;28;20238;-64
2022/12/24 00:07:31;;;;;;;79.20;43.35;;;;;;;4.94;80.25;99776.31;5057926;28;20333;-69
2022/12/24 00:09:56;;;;;;;70.15;40.72;;;;;;;4.61;82.22;99773.81;5057858;28;20044;-70
2022/12/24 00:12:22;;;;;;;70.97;41.08;;;;;;;4.60;82.80;99774.78;5058568;28;20025;-64
2022/12/24 00:14:47;;;;;;;79.18;41.17;;;;;;;4.38;83.56;99773.88;5058039;28;20044;-69
2022/12/24 00:17:13;;;;;;;64.85;37.95;;;;;;;4.21;85.33;99770.91;5058069;28;20031;-64
2022/12/24 00:19:38;;;;;;;63.67;38.00;;;;;;;4.23;85.95;99782.09;5058748;28;20033;-64
2022/12/24 00:22:04;;;;;;;64.18;35.72;;;;;;;4.21;85.93;99776.16;5059642;28;20032;-69
2022/12/24 00:24:29;;;;;;;64.65;35.15;;;;;;;4.18;86.35;99774.59;5060616;28;20040;-64
2022/12/24 00:26:55;;;;;;;62.92;36.10;;;;;;;4.25;86.70;99773.16;5060020;28;20032;-70
2022/12/24 00:29:20;;;;;;;61.50;37.22;;;;;;;4.18;87.06;99771.16;5060640;28;20049;-69
2022/12/24 00:31:46;;;;;;;56.28;35.47;;;;;;;4.28;86.11;99764.22;5042080;28;20037;-69
2022/12/24 00:34:11;;;;;;;60.28;37.10;;;;;;;4.34;86.48;99756.72;5060088;28;20037;-69
2022/12/24 00:36:36;;;;;;;54.80;33.85;;;;;;;4.45;86.09;99771.59;5060286;28;20040;-69
2022/12/24 00:39:02;;;;;;;60.70;35.35;;;;;;;4.43;85.09;99766.47;5060390;28;20033;-64
2022/12/24 00:41:28;;;;;;;60.78;33.03;;;;;;;4.41;83.85;99778.03;5059951;28;20028;-64
2022/12/24 00:44:04;;;;;;;67.43;35.13;;;;;;;4.43;83.69;99782.19;5059996;28;20045;-64
2022/12/24 00:46:31;;;;;;;56.25;31.95;;;;;;;4.45;83.03;99780.28;5060620;28;20092;-64
2022/12/24 00:48:56;;;;;;;53.75;32.55;;;;;;;4.57;83.03;99775.84;5060104;28;20033;-64
2022/12/24 00:51:23;;;;;;;88.03;41.85;;;;;;;4.63;82.93;99775.34;5060847;28;20330;-69
2022/12/24 00:53:49;;;;;;;68.03;33.13;;;;;;;4.72;82.62;99768.53;5060143;28;20355;-64
2022/12/24 00:56:15;;;;;;;64.80;33.03;;;;;;;4.75;82.20;99768.28;5059497;28;20091;-63
2022/12/24 00:58:40;;;;;;;56.78;31.33;;;;;;;4.82;81.98;99764.22;5059108;28;20322;-69
2022/12/24 01:01:06;;;;;;;50.10;28.65;;;;;;;4.87;81.44;99769.91;5058799;28;20060;-69
2022/12/24 01:03:35;;;;;;;54.70;32.83;;;;;;;4.87;80.71;99764.66;5058842;28;20170;-64
2022/12/24 01:06:01;;;;;;;53.33;30.38;;;;;;;4.78;80.56;99765.41;5059292;28;20051;-63
2022/12/24 01:08:26;;;;;;;51.58;31.70;;;;;;;4.79;80.23;99765.28;5059116;28;20393;-69
2022/12/24 01:10:52;;;;;;;55.70;31.20;;;;;;;4.81;79.89;99767.78;5059647;28;20037;-64
2022/12/24 01:13:17;;;;;;;57.40;31.27;;;;;;;4.86;80.44;99767.41;5058972;28;20040;-64
2022/12/24 01:15:43;;;;;;;54.15;29.63;;;;;;;4.90;79.52;99768.81;5053664;28;20286;-69
2022/12/24 01:18:08;;;;;;;52.63;29.85;;;;;;;4.91;79.25;99766.09;5040696;28;20041;-70
2022/12/24 01:20:33;;;;;;;56.75;30.80;;;;;;;4.87;79.18;99755.97;5038919;28;20038;-64
2022/12/24 01:22:59;;;;;;;50.30;29.92;;;;;;;4.86;79.26;99751.69;5040172;28;20224;-63
2022/12/24 01:25:24;;;;;;;48.85;30.23;;;;;;;4.62;79.26;99755.34;5041022;28;20082;-64
2022/12/24 01:27:50;;;;;;;53.38;31.52;;;;;;;4.71;79.42;99749.34;5039645;28;20033;-64
2022/12/24 01:30:15;;;;;;;54.35;33.08;;;;;;;4.79;79.50;99738.22;5039852;28;20029;-69
2022/12/24 01:32:41;;;;;;;57.10;31.40;;;;;;;4.86;79.21;99738.56;5040212;28;20037;-70
2022/12/24 01:35:08;;;;;;;57.08;33.95;;;;;;;4.84;78.75;99741.31;5040127;28;20033;-65
2022/12/24 01:37:34;;;;;;;52.15;31.70;;;;;;;4.82;79.01;99740.59;5039701;28;20220;-70
2022/12/24 01:45:50;;;;;;;51.53;30.50;;;;;;;4.95;78.42;99746.50;5039868;28;20053;-71
2022/12/24 01:48:44;;;;;;;54.63;31.27;;;;;;;4.77;79.05;99748.00;5037920;28;20460;-70
2022/12/24 01:51:25;;;;;;;48.65;27.63;;;;;;;4.71;79.51;99751.97;5028310;28;20053;-64
2022/12/24 01:53:55;;;;;;;47.38;29.52;;;;;;;4.60;80.27;99748.53;5039205;28;20211;-69
2022/12/24 01:56:21;;;;;;;48.22;28.75;;;;;;;4.48;81.44;99747.75;5039841;28;20067;-70
2022/12/24 01:58:53;;;;;;;67.32;37.72;;;;;;;4.38;82.08;99742.41;5039974;28;20067;-64
2022/12/24 02:01:18;;;;;;;84.95;45.20;;;;;;;4.33;82.67;99738.50;5039288;28;20041;-69
2022/12/24 02:03:44;;;;;;;86.43;43.28;;;;;;;4.44;81.79;99735.84;5039976;28;20068;-64
2022/12/24 02:06:14;;;;;;;83.93;38.95;;;;;;;4.54;81.91;99743.78;5039232;28;20361;-63
2022/12/24 02:08:39;;;;;;;81.25;37.92;;;;;;;4.49;81.42;99734.50;5040054;28;20237;-64
2022/12/24 02:11:21;;;;;;;57.90;31.67;;;;;;;4.28;81.19;99736.22;5040520;28;20033;-63
2022/12/24 02:13:54;;;;;;;54.80;32.10;;;;;;;3.96;82.26;99732.69;5040499;28;20052;-69
2022/12/24 02:16:40;;;;;;;53.08;30.90;;;;;;;3.66;84.79;99731.50;5044490;28;20033;-69
2022/12/24 02:19:12;;;;;;;47.78;27.60;;;;;;;3.64;85.18;99724.69;5038423;28;20041;-70
2022/12/24 02:21:41;;;;;;;51.92;29.08;;;;;;;3.72;85.59;99731.03;5036428;28;20041;-70
2022/12/24 02:24:22;;;;;;;69.28;34.28;;;;;;;3.87;84.92;99730.78;5038682;28;20037;-70
2022/12/24 02:27:13;;;;;;;92.07;34.38;;;;;;;3.87;85.08;99738.63;5039538;28;20048;-64
2022/12/24 02:29:56;;;;;;;75.13;33.08;;;;;;;3.94;84.45;99745.06;5039138;28;20046;-69
2022/12/24 02:32:31;;;;;;;49.67;27.52;;;;;;;4.11;83.30;99739.31;5039180;28;20075;-70
2022/12/24 02:35:28;;;;;;;43.50;24.15;;;;;;;4.21;81.28;99742.09;5226020;22;20354;-70
2022/12/24 02:38:01;;;;;;;44.90;26.50;;;;;;;4.29;81.37;99744.94;5015696;28;20117;-70
2022/12/24 02:40:32;;;;;;;45.50;25.93;;;;;;;4.28;81.23;99756.38;5017605;28;20187;-70
2022/12/24 02:43:03;;;;;;;46.17;26.83;;;;;;;4.37;80.81;99747.78;5017639;28;20030;-70
2022/12/24 02:45:31;;;;;;;45.42;27.70;;;;;;;4.45;80.16;99751.44;5017278;28;20034;-70
2022/12/24 02:47:58;;;;;;;48.85;27.27;;;;;;;4.48;79.61;99748.56;5016131;28;20238;-69
2022/12/24 02:50:24;;;;;;;45.53;27.35;;;;;;;4.47;79.58;99754.78;5017230;28;20034;-70
2022/12/24 02:52:50;;;;;;;46.25;26.33;;;;;;;4.44;79.09;99754.19;5017084;28;20048;-70
2022/12/24 02:55:21;;;;;;;40.35;26.58;;;;;;;4.46;79.81;99757.53;5017335;28;20112;-70
2022/12/24 02:58:25;;;;;;;45.92;26.55;;;;;;;4.47;79.50;99764.44;5017411;28;20034;-70
2022/12/24 03:01:15;;;;;;;39.78;25.35;;;;;;;4.47;78.98;99751.31;5016861;28;20097;-69
2022/12/24 03:04:38;;;;;;;45.65;26.65;;;;;;;4.39;79.01;99751.09;5017091;28;20037;-71
2022/12/24 03:07:20;;;;;;;51.42;25.67;;;;;;;4.37;78.89;99750.41;4996771;28;20054;-70
2022/12/24 03:10:15;;;;;;;51.83;27.58;;;;;;;4.37;79.54;99748.59;5021014;28;20042;-70
2022/12/24 03:12:48;;;;;;;39.78;23.38;;;;;;;4.45;79.29;99748.00;5020996;28;20057;-70
2022/12/24 03:15:16;;;;;;;40.00;24.33;;;;;;;4.48;78.86;99751.19;5020824;28;20042;-70
2022/12/24 03:17:45;;;;;;;45.80;23.80;;;;;;;4.36;78.69;99744.31;5008122;28;20355;-70
2022/12/24 03:20:13;;;;;;;42.50;24.20;;;;;;;4.33;79.04;99738.50;5007570;28;20882;-69
2022/12/24 03:22:39;;;;;;;41.53;22.38;;;;;;;4.29;79.14;99734.44;5021005;28;20066;-70
2022/12/24 03:25:05;;;;;;;34.60;22.85;;;;;;;4.35;79.23;99733.97;5020800;28;20152;-70
2022/12/24 03:27:33;;;;;;;36.67;23.17;;;;;;;4.34;79.55;99727.88;5020641;28;20046;-70
2022/12/24 03:29:59;;;;;;;43.70;25.85;;;;;;;4.38;78.80;99728.47;5004597;28;20129;-70
2022/12/24 03:32:27;;;;;;;46.47;27.08;;;;;;;4.35;79.59;99731.34;5001028;28;20310;-70
2022/12/24 03:34:53;;;;;;;42.30;26.02;;;;;;;4.38;79.04;99724.06;5000064;28;20050;-71
2022/12/24 03:37:19;;;;;;;49.88;25.77;;;;;;;4.48;78.75;99734.63;5032249;28;20360;-70
2022/12/24 03:39:44;;;;;;;41.42;23.30;;;;;;;4.51;78.43;99728.31;5039851;28;20049;-70
2022/12/24 03:42:10;;;;;;;43.15;25.38;;;;;;;4.44;77.62;99728.81;5039719;28;20063;-70
2022/12/24 03:44:35;;;;;;;37.65;23.98;;;;;;;4.32;77.70;99739.44;5040706;28;20041;-70
2022/12/24 03:47:01;;;;;;;38.17;26.77;;;;;;;4.22;78.09;99733.28;5040268;28;20045;-70
2022/12/24 03:49:26;;;;;;;43.45;26.10;;;;;;;4.18;78.50;99737.09;5039781;28;20041;-69
2022/12/24 03:51:52;;;;;;;44.65;25.42;;;;;;;4.23;78.31;99734.94;5038960;28;20029;-70
2022/12/24 03:54:17;;;;;;;40.67;23.85;;;;;;;4.30;78.32;99739.56;5039751;28;20029;-71
2022/12/24 03:56:42;;;;;;;42.83;26.40;;;;;;;4.13;78.79;99732.19;5039002;28;20041;-70
2022/12/24 03:59:08;;;;;;;41.38;24.52;;;;;;;4.13;79.32;99729.56;5038618;28;20033;-70
2022/12/24 04:01:33;;;;;;;46.97;26.38;;;;;;;4.20;79.16;99735.19;5020974;28;20049;-70
2022/12/24 04:03:59;;;;;;;39.47;24.25;;;;;;;4.23;78.75;99729.69;5040153;28;20040;-70
2022/12/24 04:06:24;;;;;;;45.63;24.25;;;;;;;4.25;78.96;99731.22;5039471;28;20049;-70
2022/12/24 04:08:50;;;;;;;43.05;25.15;;;;;;;4.27;78.88;99734.56;5040614;28;20033;-70
2022/12/24 04:11:16;;;;;;;36.40;23.08;;;;;;;4.29;78.02;99737.91;5040523;28;20397;-70
2022/12/24 04:13:42;;;;;;;39.92;24.27;;;;;;;4.28;78.51;99736.22;5040188;28;20113;-70
2022/12/24 04:16:10;;;;;;;40.97;23.88;;;;;;;4.18;79.06;99723.97;5039200;28;20045;-70
2022/12/24 04:18:37;;;;;;;45.90;26.10;;;;;;;4.28;78.37;99738.03;5038857;28;20041;-70
2022/12/24 04:21:03;;;;;;;38.80;24.77;;;;;;;4.32;78.27;99737.66;5040104;28;20124;-70
2022/12/24 04:23:30;;;;;;;38.05;24.63;;;;;;;4.24;77.49;99733.97;5039859;28;20111;-69
2022/12/24 04:25:58;;;;;;;50.97;27.45;;;;;;;4.26;77.91;99735.53;5039706;28;20053;-70
2022/12/24 04:28:23;;;;;;;42.83;24.92;;;;;;;4.22;78.07;99735.88;5039121;28;20112;-70
2022/12/24 04:30:49;;;;;;;44.50;27.27;;;;;;;4.24;77.91;99729.56;5038952;28;20242;-70
2022/12/24 04:33:14;;;;;;;45.58;25.63;;;;;;;4.27;77.79;99739.81;5039059;28;20040;-70
2022/12/24 04:35:40;;;;;;;47.33;27.42;;;;;;;4.27;78.17;99737.19;5039351;28;20226;-70
2022/12/24 04:38:07;;;;;;;41.35;26.05;;;;;;;4.33;78.33;99741.09;5039392;28;20037;-70
2022/12/24 04:40:32;;;;;;;44.63;25.33;;;;;;;4.36;78.13;99739.06;5040101;28;20049;-70
2022/12/24 04:42:57;;;;;;;39.78;26.05;;;;;;;4.36;77.46;99744.31;5039287;28;20513;-70
2022/12/24 04:45:23;;;;;;;41.60;25.70;;;;;;;4.39;76.88;99751.09;5039051;28;20076;-71
2022/12/24 04:47:48;;;;;;;55.50;29.02;;;;;;;4.41;76.39;99742.16;5039049;28;20088;-70
2022/12/24 04:50:14;;;;;;;57.25;27.58;;;;;;;4.43;76.53;99729.75;5038493;28;20045;-70
2022/12/24 04:52:39;;;;;;;59.03;31.70;;;;;;;4.46;75.88;99736.56;5038116;28;20174;-70
2022/12/24 04:55:05;;;;;;;57.85;28.13;;;;;;;4.44;76.25;99739.28;5037992;28;20038;-70
2022/12/24 04:57:32;;;;;;;53.63;28.58;;;;;;;4.46;76.54;99739.16;5039933;28;20045;-70
2022/12/24 04:59:58;;;;;;;45.33;27.00;;;;;;;4.47;76.39;99736.44;5039196;28;20061;-70
2022/12/24 05:02:23;;;;;;;47.08;27.83;;;;;;;4.48;76.34;99743.34;5038530;28;20044;-70
2022/12/24 05:04:49;;;;;;;50.67;28.83;;;;;;;4.50;76.16;99743.22;5037703;28;20108;-69
2022/12/24 05:07:15;;;;;;;45.63;26.55;;;;;;;4.48;76.31;99743.34;5038865;28;20327;-70
2022/12/24 05:09:40;;;;;;;44.03;26.17;;;;;;;4.48;75.96;99745.97;5038677;28;20041;-70
2022/12/24 05:12:06;;;;;;;45.50;27.88;;;;;;;4.35;76.14;99755.75;5038354;28;20033;-70
2022/12/24 05:14:31;;;;;;;43.60;26.27;;;;;;;4.41;76.49;99741.34;5038881;28;20230;-70
2022/12/24 05:16:57;;;;;;;46.90;26.60;;;;;;;4.35;76.74;99747.91;5038668;28;20073;-70
2022/12/24 05:19:22;;;;;;;45.15;27.00;;;;;;;4.29;76.85;99744.94;5040126;28;20155;-70
2022/12/24 05:26:20;;;;;;;45.25;26.70;;;;;;;4.31;77.02;99749.09;5038172;28;20099;-70
2022/12/24 05:27:17;;;;;;;43.72;26.98;;;;;;;4.07;78.56;99741.34;5038376;28;20087;-69
2022/12/24 05:29:42;;;;;;;43.65;25.27;;;;;;;4.18;78.51;99742.34;5036862;28;20319;-70
2022/12/24 05:32:08;;;;;;;44.75;26.17;;;;;;;4.18;77.87;99758.06;5036569;28;20045;-70
2022/12/24 05:34:33;;;;;;;41.30;24.58;;;;;;;4.21;77.04;99758.66;5036553;28;20049;-70
2022/12/24 05:36:59;;;;;;;45.63;25.20;;;;;;;4.28;76.77;99756.38;5037305;28;20279;-70
2022/12/24 05:39:24;;;;;;;39.58;23.35;;;;;;;4.29;76.41;99763.28;5037812;28;20250;-70
2022/12/24 05:41:50;;;;;;;39.28;24.60;;;;;;;4.17;77.05;99762.47;5038300;28;20405;-70
2022/12/24 05:44:15;;;;;;;50.72;29.50;;;;;;;4.14;77.05;99757.44;5038466;28;20036;-70
2022/12/24 05:46:42;;;;;;;39.97;25.77;;;;;;;4.15;77.55;99749.44;5038580;28;20126;-70
2022/12/24 05:49:08;;;;;;;42.97;24.50;;;;;;;4.19;77.32;99751.84;5037844;28;20401;-70
2022/12/24 05:51:33;;;;;;;49.70;26.33;;;;;;;4.06;78.29;99763.28;5037015;28;20048;-70
2022/12/24 05:53:59;;;;;;;54.22;29.02;;;;;;;4.16;77.87;99768.63;5036721;28;20279;-70
2022/12/24 05:56:25;;;;;;;76.07;40.40;;;;;;;4.18;77.62;99772.00;5036869;28;20262;-70
2022/12/24 05:58:52;;;;;;;192.18;88.72;;;;;;;4.06;78.03;99778.16;5038047;28;20029;-70
2022/12/24 06:01:18;;;;;;;111.13;57.72;;;;;;;3.96;80.12;99775.44;5036730;28;20220;-70
2022/12/24 06:03:44;;;;;;;154.63;70.10;;;;;;;4.10;80.19;99783.03;5036711;28;20041;-70
2022/12/24 06:06:14;;;;;;;101.32;47.95;;;;;;;4.14;79.36;99781.00;5036346;28;20103;-70
2022/12/24 06:08:41;;;;;;;80.07;41.72;;;;;;;4.19;79.11;99786.75;5036588;28;20037;-70
2022/12/24 06:11:09;;;;;;;50.80;30.20;;;;;;;4.16;79.99;99785.22;5037356;28;20353;-70
2022/12/24 06:13:35;;;;;;;48.63;26.90;;;;;;;4.09;80.33;99784.00;5041593;28;20104;-69
2022/12/24 06:16:03;;;;;;;55.05;32.42;;;;;;;4.13;80.36;99784.59;5037753;28;20112;-70
2022/12/24 06:18:29;;;;;;;82.45;40.08;;;;;;;4.21;80.77;99787.47;5036498;28;20041;-70
2022/12/24 06:20:56;;;;;;;85.47;38.05;;;;;;;4.29;80.54;99789.50;5035786;28;20041;-70
2022/12/24 06:23:23;;;;;;;90.80;39.80;;;;;;;4.38;80.46;99784.34;5037065;28;20037;-70
2022/12/24 06:25:49;;;;;;;70.93;35.33;;;;;;;4.46;79.80;99784.56;5037620;28;20037;-70
2022/12/24 06:28:15;;;;;;;61.40;34.65;;;;;;;4.57;79.16;99782.88;5037171;28;20345;-70
2022/12/24 06:30:41;;;;;;;59.88;32.20;;;;;;;4.58;79.09;99776.69;5037162;28;20042;-70
2022/12/24 06:33:06;;;;;;;67.72;33.75;;;;;;;4.51;80.12;99773.72;5037699;28;20234;-71
2022/12/24 06:35:33;;;;;;;64.05;33.22;;;;;;;4.49;80.33;99784.34;5036729;28;20041;-69
2022/12/24 06:37:59;;;;;;;73.47;36.60;;;;;;;4.52;79.97;99790.28;5038300;28;20044;-70
2022/12/24 06:40:25;;;;;;;80.13;38.28;;;;;;;4.43;80.76;99781.38;5039154;28;20349;-70
2022/12/24 06:42:50;;;;;;;57.50;31.38;;;;;;;4.50;81.31;99785.16;5039027;28;20101;-69
2022/12/24 06:45:16;;;;;;;47.05;27.33;;;;;;;4.59;81.18;99792.28;5037155;28;20056;-69
2022/12/24 06:47:42;;;;;;;66.78;35.63;;;;;;;4.58;81.46;99789.78;5037623;28;20044;-70
2022/12/24 06:50:07;;;;;;;64.15;34.55;;;;;;;4.69;81.84;99793.22;5037773;28;20060;-70
2022/12/24 06:52:33;;;;;;;57.28;31.40;;;;;;;4.73;81.21;99791.19;5038415;28;20218;-69
2022/12/24 06:54:58;;;;;;;57.00;29.98;;;;;;;4.81;81.97;99786.16;5037837;28;20238;-72
2022/12/24 06:57:23;;;;;;;46.22;26.40;;;;;;;4.95;81.48;99796.34;5036898;28;20037;-70
2022/12/24 06:59:49;;;;;;;51.88;32.30;;;;;;;5.03;81.23;99791.31;5039468;28;20314;-71
2022/12/24 07:02:14;;;;;;;80.13;44.92;;;;;;;5.14;81.49;99787.81;5040079;28;20327;-72
2022/12/24 07:04:40;;;;;;;215.18;103.10;;;;;;;5.09;82.02;99790.81;5056565;28;20439;-72
2022/12/24 07:07:05;;;;;;;102.72;55.22;;;;;;;5.14;83.04;99788.66;5056786;28;20045;-72
2022/12/24 07:09:31;;;;;;;85.07;52.28;;;;;;;5.28;82.70;99792.78;5056905;28;20049;-71
2022/12/24 07:11:56;;;;;;;96.97;54.75;;;;;;;5.37;82.47;99788.56;5057369;28;20021;-72
2022/12/24 07:14:21;;;;;;;105.93;57.35;;;;;;;5.46;82.38;99787.78;5056669;28;20226;-73
2022/12/24 07:16:48;;;;;;;101.82;56.67;;;;;;;5.60;82.50;99782.22;5057221;28;20025;-71
2022/12/24 07:19:13;;;;;;;99.55;57.40;;;;;;;5.76;82.38;99777.31;5057014;28;20024;-72
2022/12/24 07:21:39;;;;;;;96.50;54.58;;;;;;;5.81;81.99;99783.97;5056684;28;20090;-72
2022/12/24 07:24:04;;;;;;;99.22;54.88;;;;;;;6.00;80.90;99795.44;5057315;28;20029;-72
2022/12/24 07:26:30;;;;;;;87.07;47.70;;;;;;;6.17;80.38;99791.38;5058101;28;20261;-70
2022/12/24 07:28:55;;;;;;;83.03;48.72;;;;;;;6.22;80.44;99785.72;5057241;28;20029;-72
2022/12/24 07:31:21;;;;;;;60.80;33.17;;;;;;;6.13;80.57;99781.25;5057766;28;20043;-71
2022/12/24 07:33:46;;;;;;;116.85;58.42;;;;;;;6.30;80.30;99794.63;5057404;28;20033;-72
2022/12/24 07:36:18;;;;;;;111.03;49.47;;;;;;;6.42;80.85;99779.56;5056497;28;20049;-73
2022/12/24 07:38:44;;;;;;;91.82;42.83;;;;;;;6.37;81.15;99781.78;5056775;28;20052;-72
2022/12/24 07:41:10;;;;;;;57.88;33.67;;;;;;;6.38;81.24;99793.97;5056900;28;20048;-72
2022/12/24 07:43:35;;;;;;;60.45;30.73;;;;;;;6.60;81.27;99787.63;5056997;28;20071;-72
2022/12/24 07:46:01;;;;;;;50.53;29.15;;;;;;;6.78;80.57;99790.44;5057161;28;20238;-72
2022/12/24 07:48:28;;;;;;;37.47;24.10;;;;;;;6.98;80.44;99800.84;5057715;28;20045;-72
2022/12/24 07:50:55;;;;;;;60.00;31.80;;;;;;;7.17;80.10;99796.56;5056652;28;20719;-72
2022/12/24 07:53:21;;;;;;;47.95;28.33;;;;;;;7.27;79.83;99800.00;5058026;28;20273;-73
2022/12/24 07:55:47;;;;;;;47.90;26.65;;;;;;;7.39;79.37;99806.81;5061284;28;20044;-69
2022/12/24 07:58:12;;;;;;;51.13;25.83;;;;;;;7.46;79.22;99812.38;5060901;28;20264;-72
2022/12/24 08:00:37;;;;;;;40.08;22.70;;;;;;;7.60;79.70;99806.66;5060280;28;20065;-70
2022/12/24 08:03:03;;;;;;;65.53;31.70;;;;;;;7.71;79.53;99814.41;5060797;28;20033;-69
2022/12/24 08:05:34;;;;;;;41.90;24.67;;;;;;;7.76;79.13;99806.91;5060029;28;20226;-70
2022/12/24 08:07:59;;;;;;;46.97;26.58;;;;;;;7.84;79.26;99817.56;5060320;28;20051;-69
2022/12/24 08:10:24;;;;;;;45.17;30.05;;;;;;;7.90;79.85;99809.09;5060891;28;20045;-69
2022/12/24 08:12:50;;;;;;;53.95;32.08;;;;;;;7.87;79.97;99819.09;5060766;28;20048;-70
2022/12/24 08:15:16;;;;;;;52.67;31.05;;;;;;;7.84;79.95;99822.84;5060321;28;20045;-69
2022/12/24 08:17:41;;;;;;;56.80;33.95;;;;;;;7.90;80.84;99818.81;5060545;28;20036;-70
2022/12/24 08:20:07;;;;;;;57.40;34.13;;;;;;;7.94;80.00;99821.00;5060283;28;20044;-69
2022/12/24 08:22:33;;;;;;;53.05;33.08;;;;;;;7.97;80.08;99831.25;5060142;28;20191;-69
2022/12/24 08:24:58;;;;;;;64.50;36.15;;;;;;;8.01;80.69;99831.81;5060509;28;20045;-69
2022/12/24 08:27:23;;;;;;;59.22;36.50;;;;;;;8.02;81.57;99831.66;5048401;28;20037;-69
2022/12/24 08:29:49;;;;;;;46.03;29.40;;;;;;;7.97;82.28;99828.63;5058638;28;20074;-70
2022/12/24 08:32:14;;;;;;;46.78;27.90;;;;;;;7.93;82.74;99834.34;5060426;28;20054;-69
2022/12/24 08:34:40;;;;;;;41.95;25.90;;;;;;;7.88;83.35;99828.66;5059629;28;20048;-72
2022/12/24 08:37:05;;;;;;;34.03;23.13;;;;;;;7.83;84.63;99825.63;5059731;28;20053;-72
2022/12/24 08:39:30;;;;;;;40.72;23.45;;;;;;;7.77;85.44;99826.19;5059963;28;20051;-69
2022/12/24 08:41:56;;;;;;;36.55;23.17;;;;;;;7.80;85.06;99833.81;5060270;28;20392;-70
2022/12/24 08:44:21;;;;;;;35.25;24.08;;;;;;;7.87;85.54;99827.00;5059626;28;20075;-70
2022/12/24 08:46:47;;;;;;;41.03;25.40;;;;;;;7.91;85.74;99815.19;5060230;28;20048;-69
2022/12/24 08:49:12;;;;;;;47.65;30.10;;;;;;;7.96;85.08;99813.78;5060060;28;20056;-70
2022/12/24 08:51:38;;;;;;;48.33;27.73;;;;;;;7.86;85.83;99814.78;5059535;28;20218;-69
2022/12/24 08:54:03;;;;;;;39.00;22.67;;;;;;;7.90;85.82;99810.88;5059548;28;20029;-71
2022/12/24 08:56:29;;;;;;;32.42;20.38;;;;;;;7.95;85.45;99812.13;5059929;28;20033;-70
2022/12/24 08:58:54;;;;;;;32.17;20.63;;;;;;;7.90;85.36;99810.88;5059883;28;20321;-69
2022/12/24 09:01:20;;;;;;;32.80;22.70;;;;;;;7.92;85.45;99793.94;5059966;28;20326;-70
2022/12/24 09:03:46;;;;;;;33.03;22.45;;;;;;;7.94;85.58;99792.00;5059816;28;20021;-70
2022/12/24 09:06:12;;;;;;;37.45;23.27;;;;;;;7.95;85.08;99803.38;5058761;28;20070;-70
2022/12/24 09:08:38;;;;;;;38.80;25.40;;;;;;;7.92;85.00;99801.88;5059697;28;20024;-70
2022/12/24 09:11:14;;;;;;;48.50;28.58;;;;;;;7.93;85.11;99810.59;5059797;28;20090;-70
2022/12/24 09:13:40;;;;;;;46.83;30.80;;;;;;;8.05;85.50;99798.91;5059455;28;20043;-70
2022/12/24 09:16:07;;;;;;;56.15;33.75;;;;;;;8.20;85.83;99797.44;5059743;28;20502;-70
2022/12/24 09:18:33;;;;;;;61.65;37.58;;;;;;;8.32;84.80;99800.72;5059499;28;20063;-70
2022/12/24 09:21:02;;;;;;;57.08;35.35;;;;;;;8.35;84.37;99791.75;5059044;28;20048;-70
2022/12/24 09:23:28;;;;;;;52.50;32.67;;;;;;;8.35;84.60;99792.59;5059505;28;20319;-70
2022/12/24 09:25:54;;;;;;;47.92;32.03;;;;;;;8.53;84.45;99785.53;5059439;28;20044;-69
2022/12/24 09:28:20;;;;;;;43.05;27.05;;;;;;;8.66;84.42;99781.72;5058876;28;20092;-70
2022/12/24 09:30:55;;;;;;;39.40;24.42;;;;;;;8.69;83.69;99776.97;5059569;28;20091;-69
2022/12/24 09:33:20;;;;;;;21.42;14.75;;;;;;;8.60;81.82;99777.88;5059655;28;20059;-70
2022/12/24 09:35:49;;;;;;;21.23;13.55;;;;;;;8.30;82.19;99776.31;5040318;28;20346;-69
2022/12/24 09:38:14;;;;;;;21.75;14.35;;;;;;;8.34;83.19;99776.91;5059330;28;20258;-70
2022/12/24 09:40:39;;;;;;;22.23;14.25;;;;;;;8.42;83.52;99782.28;5059175;28;20090;-70
2022/12/24 09:43:13;;;;;;;22.27;13.63;;;;;;;8.34;84.43;99774.28;5059178;28;20074;-69
2022/12/24 09:46:01;;;;;;;20.63;13.85;;;;;;;8.34;83.51;99776.91;5058283;28;20443;-70
2022/12/24 09:48:32;;;;;;;24.83;12.95;;;;;;;8.38;83.97;99762.44;5046520;28;20242;-69
2022/12/24 09:51:23;;;;;;;24.17;13.40;;;;;;;8.42;83.72;99759.34;5058911;28;20047;-70
2022/12/24 09:54:10;;;;;;;22.55;15.43;;;;;;;8.46;83.72;99758.09;5058347;28;20307;-70
2022/12/24 09:56:43;;;;;;;23.77;15.40;;;;;;;8.49;84.37;99755.16;5058294;28;20045;-69
2022/12/24 09:59:19;;;;;;;24.60;15.50;;;;;;;8.65;84.68;99754.50;5060316;28;20675;-69
2022/12/24 10:01:45;;;;;;;26.17;16.35;;;;;;;8.80;84.35;99749.53;5060968;28;20703;-70
2022/12/24 10:04:18;;;;;;;27.63;15.95;;;;;;;8.94;83.85;99746.34;5057824;28;20049;-69
2022/12/24 10:06:52;;;;;;;28.63;17.10;;;;;;;9.05;83.03;99743.47;5058765;28;20045;-70
2022/12/24 10:09:24;;;;;;;27.63;17.38;;;;;;;9.03;83.31;99748.09;5058283;28;20033;-69
2022/12/24 10:12:08;;;;;;;26.48;15.82;;;;;;;9.15;83.08;99741.59;5054762;28;20053;-70
2022/12/24 10:14:54;;;;;;;25.33;16.17;;;;;;;9.24;83.28;99742.47;5051734;28;20356;-70
2022/12/24 10:17:43;;;;;;;27.33;16.67;;;;;;;9.25;83.43;99744.13;5047058;28;20044;-70
2022/12/24 10:20:34;;;;;;;32.47;18.42;;;;;;;9.39;83.31;99745.41;5040131;28;20260;-70
2022/12/24 10:23:11;;;;;;;28.73;16.10;;;;;;;9.42;81.76;99732.72;5058275;28;20049;-69
2022/12/24 10:25:53;;;;;;;26.77;18.13;;;;;;;9.43;83.50;99730.91;5058355;28;20202;-70
2022/12/24 10:28:27;;;;;;;29.00;18.40;;;;;;;9.22;84.62;99712.72;5058083;28;20104;-70
2022/12/24 10:31:00;;;;;;;38.35;20.17;;;;;;;9.28;84.70;99717.41;5057311;28;20044;-69
2022/12/24 10:33:35;;;;;;;27.48;16.10;;;;;;;9.24;86.89;99714.25;5056886;28;20051;-70
2022/12/24 10:36:02;;;;;;;22.33;14.50;;;;;;;8.88;88.51;99712.63;5057261;28;20381;-70
2022/12/24 10:38:27;;;;;;;24.65;14.70;;;;;;;8.82;89.69;99715.88;5058405;28;20048;-69
2022/12/24 10:40:57;;;;;;;22.80;15.23;;;;;;;8.58;90.68;99713.84;5057935;28;20037;-70
2022/12/24 10:43:25;;;;;;;21.45;13.85;;;;;;;8.61;90.90;99716.19;5057713;28;20041;-69
2022/12/24 10:45:54;;;;;;;22.55;14.35;;;;;;;8.60;89.95;99709.25;5057491;28;20033;-70
2022/12/24 10:48:26;;;;;;;23.60;14.60;;;;;;;8.63;90.18;99712.41;5058031;28;20330;-70
2022/12/24 10:51:01;;;;;;;22.55;13.57;;;;;;;8.57;90.36;99710.38;5057899;28;20252;-69
2022/12/24 10:53:42;;;;;;;24.48;15.73;;;;;;;8.79;88.87;99711.72;5058016;28;20044;-70
2022/12/24 10:56:10;;;;;;;23.67;15.43;;;;;;;8.76;89.23;99706.75;5057560;28;20033;-70
2022/12/24 10:58:36;;;;;;;25.30;15.52;;;;;;;8.88;89.57;99707.34;5057617;28;20044;-70
2022/12/24 11:01:02;;;;;;;23.63;15.15;;;;;;;9.03;89.82;99707.63;5057951;28;20326;-70
2022/12/24 11:03:36;;;;;;;23.95;14.70;;;;;;;8.92;89.79;99708.69;5057035;28;20037;-70
2022/12/24 11:06:13;;;;;;;24.35;14.98;;;;;;;9.00;89.15;99710.59;5057019;28;20044;-69
2022/12/24 11:08:42;;;;;;;23.63;15.27;;;;;;;9.07;87.78;99711.63;5057750;28;20140;-70
2022/12/24 11:11:14;;;;;;;24.70;15.40;;;;;;;9.25;86.79;99707.16;5057516;28;20021;-71
2022/12/24 11:13:44;;;;;;;23.27;15.73;;;;;;;9.39;86.77;99714.53;5057438;28;20053;-69
2022/12/24 11:16:47;;;;;;;23.05;14.88;;;;;;;9.47;84.96;99708.47;5057895;28;20041;-70
2022/12/24 11:19:19;;;;;;;24.88;15.40;;;;;;;9.37;86.03;99702.47;4956746;29;20063;-71
2022/12/24 11:21:45;;;;;;;27.95;15.82;;;;;;;9.42;86.28;99708.13;5029758;28;20057;-70
2022/12/24 11:24:16;;;;;;;25.48;14.60;;;;;;;9.41;86.84;99704.63;5057719;28;20108;-70
2022/12/24 11:26:43;;;;;;;26.00;15.77;;;;;;;9.42;87.64;99705.47;5057372;28;20048;-69
2022/12/24 11:29:12;;;;;;;29.73;17.15;;;;;;;9.33;86.17;99701.09;5058948;28;20033;-70
2022/12/24 11:31:37;;;;;;;29.05;17.17;;;;;;;9.46;86.20;99697.06;5048853;28;20254;-69
2022/12/24 11:34:27;;;;;;;30.02;18.38;;;;;;;9.60;85.70;99696.50;5060676;28;20029;-69
2022/12/24 11:37:15;;;;;;;27.70;16.60;;;;;;;9.71;84.18;99700.69;5061278;28;20045;-70
2022/12/24 11:39:47;;;;;;;26.95;15.23;;;;;;;9.77;83.40;99691.28;5060356;28;20350;-70